Terminal Aerodrome Forecast
Issued by NWS Greer, SC

Home | Current Version | Previous Version | Text Only | Print | Product List | Glossary On
Versions: 1 2 3 4 5 6 7 8 9 10 11 12 13 14 15
538
FTUS42 KGSP 031136
TAFGSP
TAF
KGSP 031136Z 0312/0412 01004KT P6SM BKN250
     FM031900 08003KT P6SM SCT120 BKN250
     FM032100 15003KT P6SM BKN110 OVC250
     FM040800 VRB02KT P6SM OVC030 PROB30 0408/0411 2SM -RA OVC015
     FM041100 VRB02KT 4SM -RA OVC025=

USA.gov is the U.S. government's official web portal to all federal, state and local government web resources and services.